Tiempo atmosférico en la estación meteorológica de Pozuelo De Tabara, Zamora (711 m.)



Fecha
DESCASC
Temp. máxima en grados centígrados (hora)
DESCASC
Temp. mínima en grados centígrados (hora)
DESCASC
Temp. media en grados centígrados
DESCASC
Racha de viento máxima en m/sg (hora)
DESCASC
Velocidad máxima media en intervalos de 10 minutos(hora)
DESCASC
Precipitaciones diarias en mm
DESCASC
Precipitaciones de 00:00 a 06:00 en mm
DESCASC
Precipitaciones de 06:00 a 12:00 en mm
DESCASC
Precipitaciones de 12:00 a 18:00 en mm
DESCASC
Precipitaciones de 18:00 a 24:00 en mm
DESCASC
17-02-2019 14.6 (15:30) -2.3 (08:30) 6.2 7.22 (21:20) 5 (21:20) 0 0 0 0 0
16-02-2019 15.5 (16:40) -0.8 (08:30) 7.3 5.56 (14:40) 4.17 (04:40) 0 0 0 0 0
15-02-2019 15.7 (16:50) -3 (08:20) 6.3 4.72 (21:40) 4.17 (21:40) 0 0 0 0 0
14-02-2019 16.2 (18:00) -2 (-00:0) 7.1 4.72 (20:50) 4.17 (03:50) 0 0 0 0 0
13-02-2019 14.5 (17:10) -4 (-00:0) 5.3 5.28 (15:10) 3.33 (14:10) 0 0 0 0 0
12-02-2019 12.7 (17:10) -1.9 (-00:0) 5.4 5.83 (14:20) 3.61 (21:50) 0 0 0 0 0
11-02-2019 10.1 (16:20) -2.2 (-00:0) 4 6.67 (16:40) 3.89 (17:00) 0 0 0 0 0
10-02-2019 13.2 (17:00) 1.6 (00:00) 7.4 14.72 (12:10) 9.44 (02:30) 0.2 0 0 0.2 0
09-02-2019 11.8 (14:20) 3.2 (00:00) 7.5 11.39 (17:10) 8.33 (17:20) 0 0 0 0 0
08-02-2019 10.4 (16:10) -2 (-00:0) 4.2 12.22 (15:30) 9.44 (15:20) 0 0 0 0 0
07-02-2019 13.5 (16:20) 1.6 (00:00) 7.6 9.44 (08:20) 6.11 (08:20) 0 0 0 0 0
06-02-2019 15.1 (15:50) -2.3 (08:30) 6.4 8.61 (16:10) 5.83 (16:30) 0 0 0 0 0
05-02-2019 14.4 (17:20) -2.9 (08:10) 5.7 5.83 (14:30) 4.17 (16:30) 0 0 0 0 0
04-02-2019 12 (17:20) -5 (-00:0) 3.5 6.67 (19:40) 4.72 (20:00) 0 0 0 0 0
03-02-2019 7.5 (15:40) -3.1 (-00:0) 2.2 6.11 (12:00) 4.17 (06:40) 0 0 0 0 0
02-02-2019 7.1 (15:50) -1.1 (-00:0) 3 15 (12:30) 10.28 (13:40) 0 0 0 0 0
01-02-2019 6.4 (00:00) 1.6 (00:00) 4 -- (--) -- (--) -- 2.4 4.6 -- 0
31-01-2019 11.2 (14:30) 6.4 (00:00) 8.8 18.89 (15:40) 12.5 (15:40) 8.6 0.2 0.8 0.6 7
30-01-2019 8.9 (23:59) 0.6 (00:00) 4.7 12.22 (10:10) 8.61 (15:30) 0.8 0 0 0.2 0.6
29-01-2019 9.7 (16:20) 0.6 (00:00) 5.1 18.61 (12:20) 12.5 (12:30) 1 0 0 1 0
28-01-2019 13.7 (14:50) 1.5 (00:00) 7.6 13.89 (11:50) 10 (12:00) 0 0 0 0 0
27-01-2019 11.3 (15:40) 1 (00:00) 6.2 11.94 (13:40) 8.89 (04:10) 0 0 0 0 0
26-01-2019 13.7 (16:10) -2.5 (-00:0) 5.6 10.83 (21:50) 8.06 (21:50) 0 0 0 0 0
25-01-2019 15.1 (16:50) 0.9 (00:00) 8 6.11 (21:10) 4.44 (02:30) 0 0 0 0 0
24-01-2019 16.1 (13:10) 5.8 (00:00) 11 14.44 (14:10) 9.72 (14:20) 0 0 0 0 0
23-01-2019 13.8 (13:50) 4.7 (00:00) 9.3 15.83 (14:00) 10.83 (13:30) 0 0 0 0 0
22-01-2019 8.5 (17:00) -1.3 (-00:0) 3.6 13.06 (14:10) 9.44 (11:50) 0 0 0 0 0
21-01-2019 9.6 (14:30) -1.9 (-00:0) 3.9 7.78 (11:50) 5.83 (11:50) 0 0 0 0 0
20-01-2019 11 (15:00) -0.3 (00:00) 5.3 10 (14:30) 6.94 (13:40) 0 0 0 0 0
19-01-2019 6.7 (20:40) 1.2 (00:00) 3.9 8.61 (00:30) 6.11 (19:50) 5.2 0 2.2 0.8 2.2

Gráficas

Temp. máximas Temp. mínimas Temp. medias Precipitaciones Rachas de viento máximas Velocidades máximas media en intervalos de 10 minutos

Datos horarios

Fecha y hora oficial Temperatura (ºC) Velocidad del viento (km/h) Dirección del viento Racha (km/h) Dirección de racha Precipitación (mm) Presión (hPa) Tendencia (hPa) Humedad (%)
2019-02-17 23:00:00 7.5 13 Sudoeste 21 Sudoeste 0 -- -- 69
2019-02-17 22:00:00 8.3 15 Sudoeste 26 Sudoeste 0 -- -- 64
2019-02-17 21:00:00 8.1 14 Sudoeste 19 Sudoeste 0 -- -- 64
2019-02-17 20:00:00 9.6 11 Sudoeste 23 Sudoeste 0 -- -- 60
2019-02-17 19:00:00 9.2 6 Sur 8 Sur 0 -- -- 64
2019-02-17 18:00:00 12.3 6 Sur 16 Sudeste 0 -- -- 51
2019-02-17 17:00:00 13.9 9 Sudeste 18 Este 0 -- -- 44
2019-02-17 16:00:00 14.3 12 Sudeste 20 Sudeste 0 -- -- 42
2019-02-17 15:00:00 14.2 4 Sudoeste 13 Sudeste 0 -- -- 43
2019-02-17 14:00:00 12.5 5 Nordeste 11 Nordeste 0 -- -- 50
2019-02-17 13:00:00 10.7 4 Nordeste 8 Este 0 -- -- 60
2019-02-17 12:00:00 8.2 2 Norte 6 Este 0 -- -- 66
2019-02-17 11:00:00 5.7 2 Norte 4 Noroeste 0 -- -- 82
2019-02-17 10:00:00 2.3 2 Norte 4 Oeste 0 -- -- 95
2019-02-17 09:00:00 -1.6 2 Noroeste 4 Noroeste 0 -- -- 96
2019-02-17 08:00:00 -2 3 Noroeste 8 Oeste 0 -- -- 95
2019-02-17 07:00:00 -1.7 8 Oeste 11 Oeste 0 -- -- 95
2019-02-17 06:00:00 -1.7 6 Noroeste 9 Oeste 0 -- -- 94
2019-02-17 05:00:00 -1.6 0 Calma 5 Este 0 -- -- 92
2019-02-17 04:00:00 -0.5 2 Sudeste 6 Este 0 -- -- 92
2019-02-17 03:00:00 0.2 2 Nordeste 5 Sudeste 0 -- -- 90
2019-02-17 02:00:00 1.2 4 Este 5 Este 0 -- -- 89
2019-02-17 01:00:00 2.4 0 Calma 8 Noroeste 0 -- -- 86
2019-02-17 00:00:00 2.8 4 Noroeste 12 Oeste 0 -- -- 89
2019-02-16 23:00:00 3.5 10 Oeste 15 Oeste 0 -- -- 85
2019-02-16 22:00:00 4.3 11 Noroeste 18 Oeste 0 -- -- 83
2019-02-16 21:00:00 5.1 13 Oeste 15 Oeste 0 -- -- 81
2019-02-16 20:00:00 6.6 12 Noroeste 14 Oeste 0 -- -- 77
2019-02-16 19:00:00 11.1 3 Oeste 5 Norte 0 -- -- 61
2019-02-16 18:00:00 15.4 0 Calma 9 Este 0 -- -- 43
2019-02-16 17:00:00 15.5 5 Sudeste 15 Este 0 -- -- 44
2019-02-16 16:00:00 15.2 9 Este 19 Este 0 -- -- 44
2019-02-16 15:00:00 14.6 10 Este 20 Este 0 -- -- 44
2019-02-16 14:00:00 13.2 5 Este 14 Nordeste 0 -- -- 47
2019-02-16 13:00:00 11.5 6 Nordeste 15 Nordeste 0 -- -- 52
2019-02-16 12:00:00 9.4 8 Norte 14 Noroeste 0 -- -- 58
2019-02-16 11:00:00 7.3 5 Norte 13 Nordeste 0 -- -- 66
2019-02-16 10:00:00 4.5 4 Noroeste 8 Noroeste 0 -- -- 82
2019-02-16 09:00:00 -0.2 4 Noroeste 7 Noroeste 0 -- -- 93
2019-02-16 08:00:00 -0.6 6 Noroeste 10 Noroeste 0 -- -- 92
2019-02-16 07:00:00 -0.2 8 Noroeste 9 Noroeste 0 -- -- 91
2019-02-16 06:00:00 0.5 6 Noroeste 13 Noroeste 0 -- -- 91
2019-02-16 05:00:00 1.1 12 Oeste 16 Noroeste 0 -- -- 91
2019-02-16 04:00:00 1.3 10 Noroeste 13 Noroeste 0 -- -- 91
2019-02-16 03:00:00 1.1 11 Oeste 12 Oeste 0 -- -- 92
2019-02-16 02:00:00 2.2 0 Calma 10 Oeste 0 -- -- 87
2019-02-16 01:00:00 2.8 10 Oeste 12 Noroeste 0 -- -- 88
2019-02-16 00:00:00 2.9 7 Oeste 10 Oeste 0 -- -- 88
2019-02-15 23:00:00 3.8 6 Noroeste 10 Noroeste 0 -- -- 85
2019-02-15 22:00:00 4.4 9 Noroeste 17 Noroeste 0 -- -- 82
2019-02-15 21:00:00 4.7 12 Noroeste 13 Noroeste 0 -- -- 82
2019-02-15 20:00:00 6.4 7 Oeste 10 Oeste 0 -- -- 77
2019-02-15 19:00:00 10.7 0 Calma 6 Sudeste 0 -- -- 60
2019-02-15 18:00:00 14.2 7 Sudeste 9 Sudeste 0 -- -- 52
2019-02-15 17:00:00 15.6 5 Este 14 Sudeste 0 -- -- 42
2019-02-15 16:00:00 15.3 7 Este 15 Este 0 -- -- 44
2019-02-15 15:00:00 15.1 4 Sur 13 Este 0 -- -- 46
2019-02-15 14:00:00 13.4 5 Sudeste 12 Este 0 -- -- 49
2019-02-15 13:00:00 11.5 2 Oeste 11 Este 0 -- -- 55
2019-02-15 12:00:00 8.8 3 Norte 8 Nordeste 0 -- -- 60
2019-02-15 11:00:00 5.6 5 Noroeste 9 Noroeste 0 -- -- 73
2019-02-15 10:00:00 2.5 0 Calma 8 Sudeste 0 -- -- 83
2019-02-15 09:00:00 -1.9 3 Sudeste 4 Sudeste 0 -- -- 94
2019-02-15 08:00:00 -2.7 0 Calma 3 Este 0 -- -- 92
2019-02-15 07:00:00 -1.8 2 Noroeste 4 Noroeste 0 -- -- 93
2019-02-15 06:00:00 -2 3 Oeste 6 Oeste 0 -- -- 93
2019-02-15 05:00:00 -1.9 0 Calma 6 Oeste 0 -- -- 92
2019-02-15 04:00:00 -1.4 0 Calma 4 Oeste 0 -- -- 90
2019-02-15 03:00:00 -0.5 0 Calma 3 Noroeste 0 -- -- 88
2019-02-15 02:00:00 0.6 0 Calma 9 Oeste 0 -- -- 85
2019-02-15 01:00:00 1.4 6 Noroeste 15 Oeste 0 -- -- 85
2019-02-15 00:00:00 1.8 8 Noroeste 12 Noroeste 0 -- -- 84
2019-02-14 23:00:00 2.6 9 Oeste 12 Oeste 0 -- -- 82
2019-02-14 22:00:00 3.6 7 Oeste 15 Oeste 0 -- -- 80
2019-02-14 21:00:00 4.3 9 Noroeste 17 Oeste 0 -- -- 77
2019-02-14 20:00:00 5.3 9 Noroeste 13 Oeste 0 -- -- 76
2019-02-14 19:00:00 8.5 4 Oeste 5 Sudoeste 0 -- -- 64
2019-02-14 18:00:00 16.2 0 Calma 5 Sudeste 0 -- -- 40
2019-02-14 17:00:00 15.5 2 Sur 9 Nordeste 0 -- -- 40
2019-02-14 16:00:00 14.5 4 Sudeste 11 Sudeste 0 -- -- 40
2019-02-14 15:00:00 13.1 5 Nordeste 12 Este 0 -- -- 46
2019-02-14 14:00:00 11.5 7 Nordeste 14 Nordeste 0 -- -- 52
2019-02-14 13:00:00 9.8 8 Nordeste 15 Nordeste 0 -- -- 54
2019-02-14 12:00:00 8.2 8 Nordeste 15 Nordeste 0 -- -- 58
2019-02-14 11:00:00 6.3 8 Nordeste 13 Nordeste 0 -- -- 65
2019-02-14 10:00:00 4 3 Norte 10 Noroeste 0 -- -- 73
2019-02-14 09:00:00 -0.8 9 Oeste 10 Oeste 0 -- -- 91
2019-02-14 08:00:00 -1.9 8 Noroeste 12 Noroeste 0 -- -- 90
2019-02-14 07:00:00 -1.5 9 Noroeste 11 Noroeste 0 -- -- 90
2019-02-14 06:00:00 -0.8 11 Noroeste 13 Noroeste 0 -- -- 88
2019-02-14 05:00:00 -0.5 10 Noroeste 15 Noroeste 0 -- -- 87
2019-02-14 04:00:00 0.3 14 Oeste 16 Oeste 0 -- -- 85
2019-02-14 03:00:00 -0.5 6 Noroeste 9 Noroeste 0 -- -- 86
2019-02-14 02:00:00 0 5 Noroeste 10 Oeste 0 -- -- 85
2019-02-14 01:00:00 0.4 6 Noroeste 12 Oeste 0 -- -- 85
2019-02-14 00:00:00 0.8 8 Noroeste 12 Noroeste 0 -- -- 84
2019-02-13 23:00:00 1.2 9 Noroeste 11 Oeste 0 -- -- 84
2019-02-13 22:00:00 1.7 9 Noroeste 12 Oeste 0 -- -- 83
2019-02-13 21:00:00 2.8 10 Noroeste 12 Noroeste 0 -- -- 81
2019-02-13 20:00:00 4.7 0 Calma 3 Sur 0 -- -- 74
2019-02-13 19:00:00 8.9 3 Sur 8 Sudeste 0 -- -- 57
2019-02-13 18:00:00 13.8 6 Sur 12 Sudeste 0 -- -- 42
2019-02-13 17:00:00 14.3 7 Sudeste 15 Nordeste 0 -- -- 36
2019-02-13 16:00:00 13.7 11 Este 19 Este 0 -- -- 40
2019-02-13 15:00:00 13.3 10 Este 18 Este 0 -- -- 42
2019-02-13 14:00:00 12 11 Este 17 Sudeste 0 -- -- 44
2019-02-13 13:00:00 9.8 4 Este 9 Este 0 -- -- 53
2019-02-13 12:00:00 7 2 Sudeste 5 Este 0 -- -- 60
2019-02-13 11:00:00 4 0 Calma 3 Sudeste 0 -- -- 74
2019-02-13 10:00:00 0.6 0 Calma 2 Norte 0 -- -- 86
2019-02-13 09:00:00 -3 0 Calma 2 Nordeste 0 -- -- 94
2019-02-13 08:00:00 -3.8 0 Calma 0 Calma 0 -- -- 93
2019-02-13 07:00:00 -3.4 0 Calma 2 Oeste 0 -- -- 92
2019-02-13 06:00:00 -2.8 0 Calma 0 Calma 0 -- -- 92
2019-02-13 05:00:00 -2.4 0 Calma 3 Sudeste 0 -- -- 91
2019-02-13 04:00:00 -1.5 2 Este 9 Oeste 0 -- -- 87
2019-02-13 03:00:00 -1.3 8 Oeste 12 Oeste 0 -- -- 90
2019-02-13 02:00:00 -1.3 2 Oeste 7 Oeste 0 -- -- 88
2019-02-13 01:00:00 -0.4 0 Calma 8 Oeste 0 -- -- 86
2019-02-13 00:00:00 0.3 3 Noroeste 11 Oeste 0 -- -- 86
2019-02-12 23:00:00 0.9 9 Oeste 12 Oeste 0 -- -- 85
2019-02-12 22:00:00 1.6 11 Oeste 15 Oeste 0 -- -- 83
2019-02-12 21:00:00 2.1 10 Noroeste 12 Oeste 0 -- -- 82
2019-02-12 20:00:00 3.8 7 Oeste 9 Noroeste 0 -- -- 75
2019-02-12 19:00:00 7.6 5 Sur 8 Este 0 -- -- 62
2019-02-12 18:00:00 12.3 5 Este 11 Nordeste 0 -- -- 36
2019-02-12 17:00:00 12.6 6 Este 13 Este 0 -- -- 40
2019-02-12 16:00:00 12 7 Este 13 Nordeste 0 -- -- 38
2019-02-12 15:00:00 10.6 6 Nordeste 21 Este 0 -- -- 48
2019-02-12 14:00:00 9 7 Nordeste 18 Nordeste 0 -- -- 60
2019-02-12 13:00:00 7.6 6 Este 17 Este 0 -- -- 66
2019-02-12 12:00:00 6.2 9 Este 18 Este 0 -- -- 71
2019-02-12 11:00:00 4.5 11 Nordeste 17 Nordeste 0 -- -- 79
2019-02-12 10:00:00 1.7 2 Este 4 Este 0 -- -- 90
2019-02-12 09:00:00 -1 0 Calma 9 Noroeste 0 -- -- 94
2019-02-12 08:00:00 -1.3 7 Oeste 10 Noroeste 0 -- -- 94
2019-02-12 07:00:00 -1.4 7 Noroeste 11 Noroeste 0 -- -- 93
2019-02-12 06:00:00 -1 10 Oeste 13 Noroeste 0 -- -- 94
2019-02-12 05:00:00 -1.2 8 Noroeste 13 Noroeste 0 -- -- 93
2019-02-12 04:00:00 -1 9 Noroeste 11 Noroeste 0 -- -- 94
2019-02-12 03:00:00 -0.9 8 Noroeste 10 Noroeste 0 -- -- 93
2019-02-12 02:00:00 -0.1 5 Noroeste 11 Noroeste 0 -- -- 91
2019-02-12 01:00:00 1.6 2 Noroeste 8 Sur 0 -- -- 84
2019-02-12 00:00:00 2.1 7 Sur 14 Este 0 -- -- 86
2019-02-11 23:00:00 1.3 3 Sur 7 Nordeste 0 -- -- 90
2019-02-11 22:00:00 0.6 6 Oeste 9 Oeste 0 -- -- 90
2019-02-11 21:00:00 1.8 0 Calma 10 Oeste 0 -- -- 87
2019-02-11 20:00:00 2.5 4 Oeste 6 Oeste 0 -- -- 84
2019-02-11 19:00:00 7.1 4 Nordeste 13 Este 0 -- -- 63
2019-02-11 18:00:00 9.5 10 Este 19 Este 0 -- -- 51
2019-02-11 17:00:00 10 14 Nordeste 24 Este 0 -- -- 51
2019-02-11 16:00:00 10 11 Este 23 Este 0 -- -- 50
2019-02-11 15:00:00 9.4 10 Este 23 Sudeste 0 -- -- 57
2019-02-11 14:00:00 8.6 11 Nordeste 20 Este 0 -- -- 56
2019-02-11 13:00:00 7.8 9 Este 17 Nordeste 0 -- -- 61
2019-02-11 12:00:00 6.3 7 Este 15 Este 0 -- -- 74
2019-02-11 11:00:00 4.4 2 Norte 6 Noroeste 0 -- -- 80
2019-02-11 10:00:00 1.7 5 Noroeste 9 Oeste 0 -- -- 93
2019-02-11 09:00:00 -1.6 2 Oeste 12 Oeste 0 -- -- 95
2019-02-11 08:00:00 -1.8 10 Noroeste 13 Oeste 0 -- -- 94
2019-02-11 07:00:00 -2.2 0 Calma 2 Sur 0 -- -- 94
2019-02-11 06:00:00 -1.2 0 Calma 6 Norte 0 -- -- 94
2019-02-11 05:00:00 -0.9 3 Noroeste 12 Oeste 0 -- -- 94
2019-02-11 04:00:00 -0.4 10 Noroeste 14 Oeste 0 -- -- 94
2019-02-11 03:00:00 -0.3 13 Oeste 15 Noroeste 0 -- -- 94
2019-02-11 02:00:00 0.3 4 Oeste 9 Oeste 0 -- -- 92
2019-02-11 01:00:00 0.8 5 Oeste 11 Oeste 0 -- -- 94
2019-02-11 00:00:00 1.6 4 Oeste 12 Oeste 0 -- -- 89
2019-02-10 23:00:00 2.6 8 Oeste 13 Nordeste 0 -- -- 89
2019-02-10 22:00:00 4 6 Noroeste 15 Noroeste 0 -- -- 85
2019-02-10 21:00:00 5 8 Noroeste 14 Noroeste 0 -- -- 83
2019-02-10 20:00:00 6.6 8 Oeste 20 Oeste 0 -- -- 78
2019-02-10 19:00:00 9.2 11 Oeste 34 Oeste 0 -- -- 73
2019-02-10 18:00:00 11.8 24 Noroeste 33 Oeste 0 -- -- 66
2019-02-10 17:00:00 13.2 19 Oeste 43 Oeste 0 -- -- 73
2019-02-10 16:00:00 12.9 30 Oeste 41 Oeste 0 -- -- 78
2019-02-10 15:00:00 11.7 22 Oeste 41 Sudoeste 0 -- -- 88
2019-02-10 14:00:00 10.6 23 Sudoeste 45 Sudoeste 0 -- -- 92
2019-02-10 13:00:00 10.1 24 Sudoeste 53 Sudoeste 0.2 -- -- 92
2019-02-10 12:00:00 9.7 33 Sudoeste 46 Sudoeste 0 -- -- 90
2019-02-10 11:00:00 9 23 Sudoeste 41 Sudoeste 0 -- -- 91
2019-02-10 10:00:00 8.7 23 Sudoeste 46 Sudoeste 0 -- -- 90
2019-02-10 09:00:00 8.5 29 Sudoeste 48 Sudoeste 0 -- -- 89
2019-02-10 08:00:00 7.9 31 Sudoeste 49 Sudoeste 0 -- -- 91
2019-02-10 07:00:00 7.6 24 Sudoeste 42 Sudoeste 0 -- -- 91
2019-02-10 06:00:00 7.5 27 Sudoeste 41 Sudoeste 0 -- -- 91
2019-02-10 05:00:00 7.6 24 Sudoeste 37 Sudoeste 0 -- -- 89
2019-02-10 04:00:00 7.5 23 Sudoeste 42 Sudoeste 0 -- -- 88
2019-02-10 03:00:00 7.7 29 Sudoeste 47 Sudoeste 0 -- -- 86
2019-02-10 02:00:00 7.7 24 Sudoeste 40 Sudoeste 0 -- -- 86
2019-02-10 01:00:00 7.7 22 Sudoeste 37 Sudoeste 0 -- -- 85
2019-02-10 00:00:00 7.7 22 Sudoeste 36 Sudoeste 0 -- -- 81
2019-02-09 23:00:00 8 23 Sudoeste 36 Sudoeste 0 -- -- 77
2019-02-09 22:00:00 7.7 18 Sudoeste 27 Sudoeste 0 -- -- 75
2019-02-09 21:00:00 7.6 15 Sudoeste 23 Sudoeste 0 -- -- 73
2019-02-09 20:00:00 8.2 14 Sudoeste 25 Sudoeste 0 -- -- 69
2019-02-09 19:00:00 9.2 21 Sudoeste 38 Oeste 0 -- -- 66
2019-02-09 18:00:00 10.2 21 Oeste 41 Sudoeste 0 -- -- 62
2019-02-09 17:00:00 11.3 26 Sudoeste 40 Sudoeste 0 -- -- 59
2019-02-09 16:00:00 11 23 Sudoeste 34 Sudoeste 0 -- -- 61
2019-02-09 15:00:00 11 16 Sudoeste 32 Sudoeste 0 -- -- 61
2019-02-09 14:00:00 10.8 14 Sudoeste 23 Sudoeste 0 -- -- 62
2019-02-09 13:00:00 9.8 14 Sudoeste 27 Sudoeste 0 -- -- 65
2019-02-09 12:00:00 9.2 13 Sudoeste 20 Sudoeste 0 -- -- 74
2019-02-09 11:00:00 7.7 11 Sudoeste 18 Sudoeste 0 -- -- 85
2019-02-09 10:00:00 6.7 14 Sudoeste 20 Sur 0 -- -- 95
2019-02-09 09:00:00 5.9 12 Sudoeste 17 Sudoeste 0 -- -- 96
2019-02-09 08:00:00 4.6 7 Sudoeste 14 Sudoeste 0 -- -- 98
2019-02-09 07:00:00 4.2 4 Oeste 9 Oeste 0 -- -- 96
2019-02-09 06:00:00 3.9 3 Noroeste 18 Sudoeste 0 -- -- 92
2019-02-09 05:00:00 5.6 15 Sudoeste 22 Sudoeste 0 -- -- 93
2019-02-09 04:00:00 6 12 Sudoeste 23 Sudoeste 0 -- -- 90
2019-02-09 03:00:00 6.3 12 Sudoeste 19 Sudoeste 0 -- -- 88
2019-02-09 02:00:00 6.5 10 Sudoeste 20 Sudoeste 0 -- -- 87
2019-02-09 01:00:00 6.6 11 Sudoeste 16 Sudoeste 0 -- -- 85
2019-02-09 00:00:00 6.7 9 Sudoeste 19 Sudoeste 0 -- -- 83
2019-02-08 23:00:00 6.4 9 Sudoeste 15 Sudoeste 0 -- -- 83
2019-02-08 22:00:00 5.6 5 Sudoeste 10 Oeste 0 -- -- 87
2019-02-08 21:00:00 5.5 10 Sudoeste 24 Sudoeste 0 -- -- 84
2019-02-08 20:00:00 6.5 9 Oeste 21 Oeste 0 -- -- 80
2019-02-08 19:00:00 7.1 15 Oeste 32 Oeste 0 -- -- 76
2019-02-08 18:00:00 8.3 19 Oeste 41 Oeste 0 -- -- 70
2019-02-08 17:00:00 9.3 29 Oeste 42 Sudoeste 0 -- -- 66
2019-02-08 16:00:00 10.3 31 Sudoeste 44 Oeste 0 -- -- 61
2019-02-08 15:00:00 10.1 29 Sudoeste 40 Sudoeste 0 -- -- 61
2019-02-08 14:00:00 9.6 29 Oeste 40 Sudoeste 0 -- -- 66
2019-02-08 13:00:00 7.9 30 Sudoeste 39 Sudoeste 0 -- -- 73
2019-02-08 12:00:00 6.4 19 Sudoeste 31 Sudoeste 0 -- -- 83
2019-02-08 11:00:00 5.2 14 Oeste 26 Oeste 0 -- -- 92
2019-02-08 10:00:00 2.1 2 Sur 10 Sudoeste 0 -- -- 97
2019-02-08 09:00:00 -1.4 4 Sudoeste 11 Sudoeste 0 -- -- 98
2019-02-08 08:00:00 -1.2 4 Sudeste 8 Noroeste 0 -- -- 91
2019-02-08 07:00:00 2 5 Oeste 10 Oeste 0 -- -- 90
2019-02-08 06:00:00 2.6 6 Sudoeste 15 Oeste 0 -- -- 91
2019-02-08 05:00:00 3.5 6 Oeste 15 Oeste 0 -- -- 91
2019-02-08 04:00:00 3.2 15 Oeste 17 Oeste 0 -- -- 91
2019-02-08 03:00:00 2.4 4 Noroeste 11 Noroeste 0 -- -- 93
2019-02-08 02:00:00 1.5 5 Noroeste 9 Noroeste 0 -- -- 93
2019-02-08 01:00:00 1.5 0 Calma 7 Oeste 0 -- -- 92
2019-02-08 00:00:00 1.6 2 Sur 4 Oeste 0 -- -- 89
2019-02-07 23:00:00 3.6 3 Sudoeste 12 Noroeste 0 -- -- 85
2019-02-07 22:00:00 6 4 Noroeste 24 Oeste 0 -- -- 77
2019-02-07 21:00:00 6.8 18 Sudoeste 27 Sudoeste 0 -- -- 77
2019-02-07 20:00:00 7.2 16 Sudoeste 22 Sudoeste 0 -- -- 76
2019-02-07 19:00:00 8.8 13 Sudoeste 19 Sudoeste 0 -- -- 72
2019-02-07 18:00:00 12.2 9 Sudoeste 23 Sudoeste 0 -- -- 60
2019-02-07 17:00:00 13.3 12 Sudoeste 20 Sudoeste 0 -- -- 51
2019-02-07 16:00:00 13.2 12 Oeste 22 Oeste 0 -- -- 50
2019-02-07 15:00:00 12.8 7 Sudoeste 19 Sudoeste 0 -- -- 56
2019-02-07 14:00:00 12.1 3 Nordeste 10 Sudeste 0 -- -- 58
2019-02-07 13:00:00 10.5 5 Este 8 Este 0 -- -- 61
2019-02-07 12:00:00 10.5 3 Este 20 Oeste 0 -- -- 60
2019-02-07 11:00:00 9 16 Oeste 22 Oeste 0 -- -- 72
2019-02-07 10:00:00 6.8 10 Noroeste 18 Oeste 0 -- -- 79
2019-02-07 09:00:00 4.7 8 Noroeste 34 Noroeste 0 -- -- 83
2019-02-07 08:00:00 5.2 14 Noroeste 22 Noroeste 0 -- -- 82
2019-02-07 07:00:00 5.2 8 Noroeste 26 Noroeste 0 -- -- 73
2019-02-07 06:00:00 5.3 9 Noroeste 30 Oeste 0 -- -- 71
2019-02-07 05:00:00 5.4 13 Noroeste 26 Noroeste 0 -- -- 62
2019-02-07 04:00:00 3.9 0 Calma 21 Oeste 0 -- -- 64
2019-02-07 03:00:00 4.9 3 Oeste 20 Oeste 0 -- -- 61
2019-02-07 02:00:00 6.3 14 Oeste 23 Oeste 0 -- -- 54
2019-02-07 01:00:00 5.6 0 Calma 19 Oeste 0 -- -- 61
2019-02-07 00:00:00 4.2 4 Sudoeste 12 Oeste 0 -- -- 72
2019-02-06 23:00:00 5.3 8 Sudoeste 14 Oeste 0 -- -- 68
2019-02-06 22:00:00 5.9 3 Noroeste 12 Sudoeste 0 -- -- 71
2019-02-06 21:00:00 7.6 7 Oeste 18 Oeste 0 -- -- 67
2019-02-06 20:00:00 8.8 14 Oeste 17 Oeste 0 -- -- 60
2019-02-06 19:00:00 10.3 12 Sudoeste 23 Oeste 0 -- -- 56
2019-02-06 18:00:00 12.8 15 Oeste 29 Oeste 0 -- -- 49
2019-02-06 17:00:00 14.4 18 Oeste 31 Oeste 0 -- -- 39
2019-02-06 16:00:00 15.1 18 Oeste 30 Oeste 0 -- -- 43
2019-02-06 15:00:00 13.8 12 Oeste 25 Sudoeste 0 -- -- 58
2019-02-06 14:00:00 12.8 12 Sudoeste 19 Sudoeste 0 -- -- 59
2019-02-06 13:00:00 9.7 7 Este 12 Este 0 -- -- 72
2019-02-06 12:00:00 6.8 3 Sudeste 8 Sudeste 0 -- -- 81
2019-02-06 11:00:00 4.1 3 Sudeste 5 Sudeste 0 -- -- 92
2019-02-06 10:00:00 1.3 0 Calma 2 Sudeste 0 -- -- 98
2019-02-06 09:00:00 -1.7 0 Calma 0 Calma 0 -- -- 97
2019-02-06 08:00:00 -2.2 0 Calma 4 Oeste 0 -- -- 96
2019-02-06 07:00:00 -1.4 4 Oeste 5 Oeste 0 -- -- 96
2019-02-06 06:00:00 -1.4 4 Oeste 5 Oeste 0 -- -- 96
2019-02-06 05:00:00 -1.3 0 Calma 2 Norte 0 -- -- 95
2019-02-06 04:00:00 -0.8 0 Calma 3 Oeste 0 -- -- 95
2019-02-06 03:00:00 -0.3 0 Calma 8 Oeste 0 -- -- 95
2019-02-06 02:00:00 0.1 4 Noroeste 5 Noroeste 0 -- -- 95
2019-02-06 01:00:00 0.9 0 Calma 11 Oeste 0 -- -- 94
2019-02-06 00:00:00 1.1 2 Noroeste 6 Noroeste 0 -- -- 93
2019-02-05 23:00:00 2.2 0 Calma 6 Oeste 0 -- -- 90
2019-02-05 22:00:00 3.4 8 Oeste 10 Oeste 0 -- -- 90
2019-02-05 21:00:00 4.1 5 Noroeste 10 Noroeste 0 -- -- 86
2019-02-05 20:00:00 6.2 4 Sudoeste 6 Oeste 0 -- -- 79
2019-02-05 19:00:00 9.3 0 Calma 17 Sudeste 0 -- -- 68
2019-02-05 18:00:00 13.2 12 Sudeste 18 Sur 0 -- -- 57
2019-02-05 17:00:00 14.3 12 Sur 20 Sudoeste 0 -- -- 54
2019-02-05 16:00:00 14.1 12 Sur 20 Sudoeste 0 -- -- 54
2019-02-05 15:00:00 13.1 10 Sur 21 Sudeste 0 -- -- 56
2019-02-05 14:00:00 10.6 12 Este 17 Este 0 -- -- 60
2019-02-05 13:00:00 8.4 6 Sudeste 12 Sudeste 0 -- -- 66
2019-02-05 12:00:00 6.2 2 Este 6 Sudeste 0 -- -- 74
2019-02-05 11:00:00 3.6 0 Calma 4 Sudeste 0 -- -- 83
2019-02-05 10:00:00 0.7 0 Calma 2 Sudeste 0 -- -- 93
2019-02-05 09:00:00 -2.3 0 Calma 3 Noroeste 0 -- -- 95
2019-02-05 08:00:00 -2.6 0 Calma 4 Oeste 0 -- -- 94
2019-02-05 07:00:00 -2.1 3 Oeste 5 Oeste 0 -- -- 95
2019-02-05 06:00:00 -1.9 2 Oeste 4 Oeste 0 -- -- 94
2019-02-05 05:00:00 -1.6 2 Noroeste 5 Oeste 0 -- -- 94
2019-02-05 04:00:00 -1.1 0 Calma 5 Sudoeste 0 -- -- 93
2019-02-05 03:00:00 -1 0 Calma 5 Noroeste 0 -- -- 93
2019-02-05 02:00:00 -0.3 3 Noroeste 7 Noroeste 0 -- -- 90
2019-02-05 01:00:00 0.3 4 Sur 11 Norte 0 -- -- 89
2019-02-05 00:00:00 0.7 4 Oeste 7 Oeste 0 -- -- 89
2019-02-04 23:00:00 2.4 0 Calma 10 Oeste 0 -- -- 82
2019-02-04 22:00:00 4.1 9 Oeste 14 Oeste 0 -- -- 75
2019-02-04 21:00:00 5.1 10 Oeste 21 Oeste 0 -- -- 69
2019-02-04 20:00:00 7.4 17 Noroeste 24 Oeste 0 -- -- 58
2019-02-04 19:00:00 8.2 15 Sudoeste 21 Sur 0 -- -- 59
2019-02-04 18:00:00 11.2 11 Sudoeste 17 Sudoeste 0 -- -- 49
2019-02-04 17:00:00 11.8 8 Sur 15 Sur 0 -- -- 45
2019-02-04 16:00:00 11.2 9 Sudoeste 14 Sudoeste 0 -- -- 48
2019-02-04 15:00:00 10 3 Sudeste 10 Norte 0 -- -- 51
2019-02-04 14:00:00 7.8 3 Sudeste 10 Este 0 -- -- 53
2019-02-04 13:00:00 4.4 4 Este 9 Este 0 -- -- 69
2019-02-04 12:00:00 1 3 Sudeste 10 Este 0 -- -- 80
2019-02-04 11:00:00 -0.8 6 Este 8 Este 0 -- -- 85
2019-02-04 10:00:00 -2.8 0 Calma 4 Este 0 -- -- 93
2019-02-04 09:00:00 -4.2 0 Calma 3 Norte 0 -- -- 94
2019-02-04 08:00:00 -4.9 0 Calma 3 Oeste 0 -- -- 93
2019-02-04 07:00:00 -4.9 0 Calma 4 Este 0 -- -- 92
2019-02-04 06:00:00 -4.3 0 Calma 4 Oeste 0 -- -- 92
2019-02-04 05:00:00 -4.2 4 Oeste 5 Noroeste 0 -- -- 92
2019-02-04 04:00:00 -3.7 0 Calma 4 Este 0 -- -- 90
2019-02-04 03:00:00 -3.2 3 Sur 6 Norte 0 -- -- 90
2019-02-04 02:00:00 -3.2 0 Calma 2 Oeste 0 -- -- 87
2019-02-04 01:00:00 -2.6 0 Calma 6 Noroeste 0 -- -- 88
2019-02-04 00:00:00 -1.9 5 Oeste 9 Oeste 0 -- -- 86
2019-02-03 23:00:00 -1.8 5 Oeste 9 Oeste 0 -- -- 88
2019-02-03 22:00:00 -1.7 5 Oeste 7 Oeste 0 -- -- 86
2019-02-03 21:00:00 -1 4 Noroeste 5 Noroeste 0 -- -- 80
2019-02-03 20:00:00 0 2 Sur 4 Sudeste 0 -- -- 74
2019-02-03 19:00:00 2.6 4 Sur 8 Sudeste 0 -- -- 63
2019-02-03 18:00:00 6.9 5 Sudeste 12 Este 0 -- -- 45
2019-02-03 17:00:00 7.3 4 Nordeste 17 Nordeste 0 -- -- 36
2019-02-03 16:00:00 7.4 10 Nordeste 20 Nordeste 0 -- -- 35
2019-02-03 15:00:00 7 13 Nordeste 21 Nordeste 0 -- -- 38
2019-02-03 14:00:00 6.7 11 Nordeste 20 Nordeste 0 -- -- 39
2019-02-03 13:00:00 6.1 13 Norte 21 Norte 0 -- -- 47
2019-02-03 12:00:00 5.3 14 Norte 22 Norte 0 -- -- 51
2019-02-03 11:00:00 3.1 10 Noroeste 15 Noroeste 0 -- -- 60
2019-02-03 10:00:00 0.5 8 Oeste 12 Oeste 0 -- -- 72
2019-02-03 09:00:00 -2.2 3 Sudoeste 16 Noroeste 0 -- -- 83
2019-02-03 08:00:00 -2.7 12 Noroeste 16 Noroeste 0 -- -- 84
2019-02-03 07:00:00 -2.5 8 Noroeste 19 Noroeste 0 -- -- 83
2019-02-03 06:00:00 -3.1 6 Noroeste 18 Noroeste 0 -- -- 87
2019-02-03 05:00:00 -3 9 Oeste 14 Oeste 0 -- -- 87
2019-02-03 04:00:00 -2.6 6 Oeste 15 Oeste 0 -- -- 87
2019-02-03 03:00:00 -2.2 8 Noroeste 16 Oeste 0 -- -- 87
2019-02-03 02:00:00 -2 9 Noroeste 13 Oeste 0 -- -- 87
2019-02-03 01:00:00 -1.4 10 Oeste 13 Oeste 0 -- -- 87
2019-02-03 00:00:00 -1.1 8 Oeste 14 Noroeste 0 -- -- 85
2019-02-02 23:00:00 0.2 8 Noroeste 19 Oeste 0 -- -- 78
2019-02-02 22:00:00 -0.3 8 Oeste 17 Oeste 0 -- -- 81
2019-02-02 21:00:00 -0.3 8 Oeste 13 Oeste 0 -- -- 81
2019-02-02 20:00:00 1.1 13 Noroeste 19 Oeste 0 -- -- 72
2019-02-02 19:00:00 2.3 11 Oeste 34 Noroeste 0 -- -- 67
2019-02-02 18:00:00 5.1 22 Noroeste 39 Noroeste 0 -- -- 55
2019-02-02 17:00:00 6.4 22 Noroeste 34 Noroeste 0 -- -- 48
2019-02-02 16:00:00 7.1 23 Noroeste 45 Norte 0 -- -- 48
2019-02-02 15:00:00 6.5 34 Norte 49 Noroeste 0 -- -- 46
2019-02-02 14:00:00 6.5 30 Norte 49 Norte 0 -- -- 50
2019-02-02 13:00:00 6.1 27 Norte 54 Norte 0 -- -- 55
2019-02-02 12:00:00 5.4 29 Noroeste 44 Noroeste 0 -- -- 56
2019-02-02 11:00:00 4.7 19 Noroeste 31 Noroeste 0 -- -- 59
2019-02-02 10:00:00 3.4 21 Noroeste 32 Noroeste 0 -- -- 60
2019-02-02 09:00:00 -0.2 5 Oeste 10 Sudoeste 0 -- -- 78
2019-02-02 08:00:00 1.1 9 Noroeste 21 Noroeste 0 -- -- 70
2019-02-02 07:00:00 0.8 14 Oeste 24 Oeste 0 -- -- 73
2019-02-02 06:00:00 1 15 Oeste 21 Sudoeste 0 -- -- 69
2019-02-02 05:00:00 1.7 17 Noroeste 43 Oeste 0 -- -- 65
2019-02-02 04:00:00 2.1 22 Noroeste 42 Oeste 0 -- -- 66
2019-02-02 03:00:00 1.7 23 Oeste 31 Oeste 0 -- -- 77
2019-02-02 02:00:00 1.8 23 Oeste 41 Oeste 0 -- -- 79
2019-02-02 01:00:00 2.2 32 Oeste 45 Oeste 0 -- -- 79
2019-02-02 00:00:00 1.7 23 Oeste 41 Oeste 0 -- -- 84
2019-02-01 23:00:00 2.3 30 Oeste 50 Oeste 0 -- -- 82
2019-02-01 22:00:00 2.4 33 Oeste 55 Oeste 0 -- -- 85
2019-02-01 21:00:00 2 35 Oeste 51 Oeste 0 -- -- 88
2019-02-01 20:00:00 1.8 36 Oeste 65 Oeste 0 -- -- 90
2019-02-01 19:00:00 2.4 42 Oeste 64 Oeste 0 -- -- 88
2019-02-01 18:00:00 2.7 42 Oeste 65 Oeste 0 -- -- 89
2019-02-01 17:00:00 3.3 40 Oeste 64 Oeste 0 -- -- 86
2019-02-01 16:00:00 4.4 54 Oeste 72 Oeste 0 -- -- 76
2019-02-01 15:00:00 5.2 44 Oeste 62 Oeste 0 -- -- 74
2019-02-01 14:00:00 4.4 32 Oeste 60 Sudoeste 0 -- -- 84
2019-02-01 13:00:00 5.5 37 Sudoeste -- -- -- -- -- 82
2019-02-01 12:00:00 2.7 31 Sudoeste 57 Sudoeste 2.4 -- -- 92
2019-02-01 11:00:00 4.3 38 Sudoeste 63 Sudoeste 0.2 -- -- 89
2019-02-01 10:00:00 3.7 42 Sudoeste 58 Sudoeste 1.8 -- -- 91
2019-02-01 09:00:00 3.8 26 Sudoeste 47 Sudoeste 0.2 -- -- 87
2019-02-01 08:00:00 3.5 30 Sudoeste 48 Sudoeste 0 -- -- 87
2019-02-01 07:00:00 4.1 37 Sudoeste 56 Oeste 0 -- -- 85
2019-02-01 06:00:00 3.9 35 Sudoeste 49 Oeste 0 -- -- 88
2019-02-01 05:00:00 3.1 27 Oeste 55 Oeste 1.8 -- -- 91
2019-02-01 04:00:00 4.8 34 Oeste 55 Sudoeste 0.4 -- -- 89
2019-02-01 03:00:00 5.4 32 Oeste 54 Oeste 0.2 -- -- 89
2019-02-01 02:00:00 5.5 28 Oeste 44 Oeste 0 -- -- 88
2019-02-01 01:00:00 5.7 30 Oeste 53 Oeste 0 -- -- 84
2019-02-01 00:00:00 6.4 41 Oeste 60 Oeste 0 -- -- 80
2019-01-31 23:00:00 7.7 22 Oeste 38 Oeste 0 -- -- 90
2019-01-31 22:00:00 8.1 25 Oeste 46 Oeste 1.2 -- -- 88
2019-01-31 21:00:00 9.4 29 Oeste 50 Sudoeste 4.2 -- -- 93
2019-01-31 20:00:00 9.5 38 Sudoeste 57 Sudoeste 1.2 -- -- 92
2019-01-31 19:00:00 9.5 38 Sudoeste 53 Sudoeste 0.4 -- -- 92
2019-01-31 18:00:00 9.8 34 Sudoeste 62 Sudoeste 0.2 -- -- 92
2019-01-31 17:00:00 10.3 38 Sudoeste 62 Sudoeste 0 -- -- 90
2019-01-31 16:00:00 10.8 44 Sudoeste 68 Sudoeste 0 -- -- 90
2019-01-31 15:00:00 11.1 34 Sudoeste 57 Sudoeste 0.2 -- -- 90
2019-01-31 14:00:00 10.9 30 Sudoeste 50 Sudoeste 0 -- -- 91
2019-01-31 13:00:00 10.5 24 Sudoeste 49 Sudoeste 0.2 -- -- 93
2019-01-31 12:00:00 10.2 24 Sudoeste 47 Sudoeste 0.2 -- -- 93
2019-01-31 11:00:00 10 31 Sudoeste 46 Sudoeste 0 -- -- 94
2019-01-31 10:00:00 8.8 31 Sudoeste 43 Sudoeste 0 -- -- 94
2019-01-31 09:00:00 8.2 28 Sudoeste 49 Sudoeste 0.2 -- -- 94
2019-01-31 08:00:00 8.7 37 Sudoeste 50 Sudoeste 0.2 -- -- 93
2019-01-31 07:00:00 9 24 Sudoeste 41 Sudoeste 0.2 -- -- 93
2019-01-31 06:00:00 9.2 25 Sudoeste 37 Sudoeste 0 -- -- 92
2019-01-31 05:00:00 9.5 24 Sudoeste 44 Sudoeste 0 -- -- 91
2019-01-31 04:00:00 9.7 28 Sudoeste 42 Sudoeste 0 -- -- 90
2019-01-31 03:00:00 9.6 28 Sudoeste 53 Sudoeste 0.2 -- -- 90
2019-01-31 02:00:00 9.4 26 Sudoeste 44 Sudoeste 0 -- -- 92
2019-01-31 01:00:00 9.1 27 Sudoeste 45 Sudoeste 0 -- -- 92
2019-01-31 00:00:00 8.9 27 Sudoeste 43 Oeste 0 -- -- 92
2019-01-30 23:00:00 8.3 24 Sudoeste 41 Sudoeste 0 -- -- 92
2019-01-30 22:00:00 7.8 25 Sudoeste 43 Sudoeste 0 -- -- 93
2019-01-30 21:00:00 7.5 22 Sudoeste 38 Sudoeste 0 -- -- 93
2019-01-30 20:00:00 7 28 Sudoeste 40 Sudoeste 0.2 -- -- 93
2019-01-30 19:00:00 6.5 25 Sudoeste 40 Sudoeste 0.4 -- -- 93
2019-01-30 18:00:00 6.1 27 Sudoeste 40 Sudoeste 0.2 -- -- 93
2019-01-30 17:00:00 5.7 18 Sudoeste 33 Sudoeste 0 -- -- 92
2019-01-30 16:00:00 5.6 22 Sudoeste 41 Sudoeste 0 -- -- 87
2019-01-30 15:00:00 6 22 Sudoeste 41 Oeste 0 -- -- 79
2019-01-30 14:00:00 6.6 21 Oeste 36 Sudoeste 0 -- -- 74
2019-01-30 13:00:00 6.4 24 Oeste 36 Oeste 0 -- -- 71
2019-01-30 12:00:00 4.5 19 Sudoeste 36 Sudoeste 0 -- -- 77
2019-01-30 11:00:00 3.2 22 Oeste 44 Oeste 0 -- -- 80
2019-01-30 10:00:00 1.8 26 Oeste 37 Sudoeste 0 -- -- 84
2019-01-30 09:00:00 1 19 Oeste 36 Oeste 0 -- -- 87
2019-01-30 08:00:00 0.8 16 Noroeste 33 Oeste 0 -- -- 87
2019-01-30 07:00:00 1.1 19 Oeste 26 Oeste 0 -- -- 85
2019-01-30 06:00:00 1 19 Oeste 28 Sudoeste 0 -- -- 83
2019-01-30 05:00:00 1.5 18 Oeste 28 Oeste 0 -- -- 80
2019-01-30 04:00:00 1.3 16 Sudoeste 23 Sudoeste 0 -- -- 80
2019-01-30 03:00:00 2.1 9 Sudoeste 18 Noroeste 0 -- -- 78
2019-01-30 02:00:00 2.2 10 Oeste 24 Oeste 0 -- -- 83
2019-01-30 01:00:00 2.9 14 Noroeste 41 Oeste 0 -- -- 82
2019-01-30 00:00:00 3.1 25 Oeste 36 Oeste 0 -- -- 81
2019-01-29 23:00:00 3.7 23 Oeste 37 Oeste 0 -- -- 76
2019-01-29 22:00:00 4.1 23 Oeste 35 Oeste 0 -- -- 74
2019-01-29 21:00:00 4.4 19 Sudoeste 33 Oeste 0 -- -- 75
2019-01-29 20:00:00 5 16 Oeste 30 Oeste 0 -- -- 72
2019-01-29 19:00:00 6.2 24 Oeste 46 Noroeste 0 -- -- 71
2019-01-29 18:00:00 7.6 32 Noroeste 49 Oeste 0 -- -- 65
2019-01-29 17:00:00 8.2 35 Oeste 60 Noroeste 0.2 -- -- 69
2019-01-29 16:00:00 9.4 32 Oeste 48 Oeste 0.2 -- -- 86
2019-01-29 15:00:00 8.3 23 Oeste 60 Oeste 0.6 -- -- 88
2019-01-29 14:00:00 9.2 38 Oeste 56 Oeste 0 -- -- 79
2019-01-29 13:00:00 9.6 36 Oeste 67 Oeste 0 -- -- 74
2019-01-29 12:00:00 8.2 32 Oeste 53 Sudoeste 0 -- -- 82
2019-01-29 11:00:00 6.1 15 Sudoeste 31 Sudoeste 0 -- -- 89
2019-01-29 10:00:00 4.9 7 Sudoeste 23 Oeste 0 -- -- 93
2019-01-29 09:00:00 4.5 17 Sudoeste 29 Sudoeste 0 -- -- 92
2019-01-29 08:00:00 4.2 22 Sudoeste 39 Sudoeste 0 -- -- 91
2019-01-29 07:00:00 3.8 29 Sudoeste 50 Oeste 0 -- -- 88
2019-01-29 06:00:00 3.8 41 Oeste 55 Oeste 0 -- -- 87
2019-01-29 05:00:00 3.1 12 Noroeste 33 Oeste 0 -- -- 84
2019-01-29 04:00:00 3.5 21 Noroeste 35 Oeste 0 -- -- 83
2019-01-29 03:00:00 2.5 10 Noroeste 22 Noroeste 0 -- -- 86
2019-01-29 02:00:00 0.8 7 Noroeste 12 Oeste 0 -- -- 84
2019-01-29 01:00:00 1.4 0 Calma 13 Nordeste 0 -- -- 81
2019-01-29 00:00:00 3.1 11 Noroeste 19 Noroeste 0 -- -- 77
2019-01-28 23:00:00 2.7 3 Norte 13 Noroeste 0 -- -- 80
2019-01-28 22:00:00 3.2 10 Noroeste 13 Noroeste 0 -- -- 78
2019-01-28 21:00:00 4.4 0 Calma 22 Oeste 0 -- -- 73
2019-01-28 20:00:00 5.8 15 Noroeste 23 Oeste 0 -- -- 69
2019-01-28 19:00:00 7.4 12 Oeste 19 Oeste 0 -- -- 60
2019-01-28 18:00:00 9.9 12 Norte 24 Norte 0 -- -- 48
2019-01-28 17:00:00 10.7 17 Noroeste 27 Noroeste 0 -- -- 50
2019-01-28 16:00:00 11.7 17 Oeste 37 Oeste 0 -- -- 56
2019-01-28 15:00:00 13.7 25 Oeste 40 Oeste 0 -- -- 48
2019-01-28 14:00:00 11.8 30 Oeste 41 Oeste 0 -- -- 58
2019-01-28 13:00:00 11.9 30 Oeste 45 Oeste 0 -- -- 59
2019-01-28 12:00:00 10.2 36 Oeste 50 Oeste 0 -- -- 67
2019-01-28 11:00:00 8.3 28 Oeste 40 Oeste 0 -- -- 77
2019-01-28 10:00:00 5.8 20 Oeste 30 Sudoeste 0 -- -- 86
2019-01-28 09:00:00 2.4 4 Sudoeste 16 Oeste 0 -- -- 91
2019-01-28 08:00:00 1.6 4 Noroeste 18 Norte 0 -- -- 92
2019-01-28 07:00:00 2.1 12 Noroeste 42 Sudoeste 0 -- -- 91
2019-01-28 06:00:00 2.1 29 Sudoeste 43 Sudoeste 0 -- -- 91
2019-01-28 05:00:00 1.9 27 Sudoeste 37 Sudoeste 0 -- -- 88
2019-01-28 04:00:00 2.1 28 Sudoeste 40 Sudoeste 0 -- -- 85
2019-01-28 03:00:00 2.1 24 Sudoeste 35 Sudoeste 0 -- -- 79
2019-01-28 02:00:00 2.3 22 Sudoeste 31 Sudoeste 0 -- -- 78
2019-01-28 01:00:00 1.9 4 Oeste 17 Noroeste 0 -- -- 77
2019-01-28 00:00:00 2.4 5 Norte 31 Sudoeste 0 -- -- 76
2019-01-27 23:00:00 3.2 18 Sudoeste 29 Sudoeste 0 -- -- 74
2019-01-27 22:00:00 3.6 15 Oeste 21 Oeste 0 -- -- 70
2019-01-27 21:00:00 4 13 Oeste 22 Oeste 0 -- -- 67
2019-01-27 20:00:00 3.9 5 Oeste 24 Oeste 0 -- -- 70
2019-01-27 19:00:00 5.7 10 Noroeste 22 Oeste 0 -- -- 62
2019-01-27 18:00:00 8.6 12 Noroeste 29 Noroeste 0 -- -- 48
2019-01-27 17:00:00 10 23 Noroeste 37 Noroeste 0 -- -- 42
2019-01-27 16:00:00 11.1 24 Noroeste 41 Noroeste 0 -- -- 39
2019-01-27 15:00:00 10.6 22 Noroeste 35 Noroeste 0 -- -- 43
2019-01-27 14:00:00 10.8 23 Noroeste 43 Noroeste 0 -- -- 43
2019-01-27 13:00:00 10.5 21 Noroeste 38 Noroeste 0 -- -- 46
2019-01-27 12:00:00 9.1 21 Noroeste 32 Noroeste 0 -- -- 49
2019-01-27 11:00:00 7.4 17 Noroeste 31 Noroeste 0 -- -- 54
2019-01-27 10:00:00 6 10 Noroeste 22 Oeste 0 -- -- 63
2019-01-27 09:00:00 1.7 9 Noroeste 17 Oeste 0 -- -- 86
2019-01-27 08:00:00 2.8 2 Oeste 25 Oeste 0 -- -- 83
2019-01-27 07:00:00 4.3 21 Oeste 32 Oeste 0 -- -- 83
2019-01-27 06:00:00 4.1 21 Oeste 36 Oeste 0 -- -- 89
2019-01-27 05:00:00 4.1 18 Oeste 40 Oeste 0 -- -- 86
2019-01-27 04:00:00 4.6 22 Oeste 34 Oeste 0 -- -- 79
2019-01-27 03:00:00 5.1 24 Oeste 36 Oeste 0 -- -- 75
2019-01-27 02:00:00 5.9 17 Oeste 33 Oeste 0 -- -- 73
2019-01-27 01:00:00 5.9 25 Noroeste 35 Oeste 0 -- -- 74
2019-01-27 00:00:00 5.5 14 Noroeste 26 Noroeste 0 -- -- 80
2019-01-26 23:00:00 6.3 15 Noroeste 36 Oeste 0 -- -- 79
2019-01-26 22:00:00 7.3 19 Oeste 39 Oeste 0 -- -- 77
2019-01-26 21:00:00 7 13 Noroeste 27 Oeste 0 -- -- 79
2019-01-26 20:00:00 7.8 15 Oeste 34 Sudoeste 0 -- -- 76
2019-01-26 19:00:00 9 20 Sudoeste 31 Sudoeste 0 -- -- 71
2019-01-26 18:00:00 11.3 9 Oeste 20 Oeste 0 -- -- 61
2019-01-26 17:00:00 13.2 17 Oeste 24 Oeste 0 -- -- 56
2019-01-26 16:00:00 13.5 14 Oeste 24 Oeste 0 -- -- 55
2019-01-26 15:00:00 11.9 12 Sudoeste 20 Sudoeste 0 -- -- 64
2019-01-26 14:00:00 10.3 12 Sur 19 Sudoeste 0 -- -- 69
2019-01-26 13:00:00 8.1 8 Sudeste 12 Este 0 -- -- 75
2019-01-26 12:00:00 5.8 3 Nordeste 7 Este 0 -- -- 82
2019-01-26 11:00:00 3.2 3 Este 4 Este 0 -- -- 93
2019-01-26 10:00:00 -0.1 0 Calma 2 Oeste 0 -- -- 98
2019-01-26 09:00:00 -2.3 0 Calma 5 Oeste 0 -- -- 96
2019-01-26 08:00:00 -2 4 Noroeste 11 Oeste 0 -- -- 96
2019-01-26 07:00:00 -1.9 8 Noroeste 10 Oeste 0 -- -- 96
2019-01-26 06:00:00 -1.7 5 Oeste 13 Noroeste 0 -- -- 95
2019-01-26 05:00:00 -1.6 6 Noroeste 10 Oeste 0 -- -- 95
2019-01-26 04:00:00 -1.1 6 Noroeste 9 Noroeste 0 -- -- 95
2019-01-26 03:00:00 -0.1 6 Oeste 10 Oeste 0 -- -- 94
2019-01-26 02:00:00 -0.1 9 Oeste 12 Oeste 0 -- -- 94
2019-01-26 01:00:00 0.3 7 Noroeste 10 Oeste 0 -- -- 92
2019-01-26 00:00:00 0.9 8 Noroeste 9 Noroeste 0 -- -- 89
2019-01-25 23:00:00 2.6 5 Norte 11 Noroeste 0 -- -- 87
2019-01-25 22:00:00 2.6 7 Oeste 22 Nordeste 0 -- -- 87
2019-01-25 21:00:00 3.6 6 Noroeste 10 Noroeste 0 -- -- 83
2019-01-25 20:00:00 7 2 Noroeste 11 Sudoeste 0 -- -- 70
2019-01-25 19:00:00 8.5 11 Sudoeste 14 Sudoeste 0 -- -- 69
2019-01-25 18:00:00 12.5 10 Sudoeste 11 Sudoeste 0 -- -- 55
2019-01-25 17:00:00 14.9 4 Sudeste 10 Este 0 -- -- 43
2019-01-25 16:00:00 14.9 4 Sudeste 16 Este 0 -- -- 43
2019-01-25 15:00:00 14.5 3 Nordeste 16 Este 0 -- -- 42
2019-01-25 14:00:00 13.6 4 Este 10 Este 0 -- -- 46
2019-01-25 13:00:00 12.1 5 Este 15 Este 0 -- -- 54
2019-01-25 12:00:00 10.7 6 Este 13 Sudeste 0 -- -- 59
2019-01-25 11:00:00 8.7 3 Este 6 Este 0 -- -- 65
2019-01-25 10:00:00 3.8 0 Calma 5 Sur 0 -- -- 85
2019-01-25 09:00:00 1.6 0 Calma 10 Noroeste 0 -- -- 83
2019-01-25 08:00:00 3.2 6 Oeste 11 Oeste 0 -- -- 79
2019-01-25 07:00:00 2.7 9 Oeste 12 Noroeste 0 -- -- 81
2019-01-25 06:00:00 5.1 4 Oeste 14 Sudoeste 0 -- -- 75
2019-01-25 05:00:00 3.6 2 Oeste 16 Noroeste 0 -- -- 80
2019-01-25 04:00:00 5.2 14 Noroeste 21 Noroeste 0 -- -- 76
2019-01-25 03:00:00 4.9 13 Norte 18 Norte 0 -- -- 78
2019-01-25 02:00:00 3.6 13 Oeste 15 Oeste 0 -- -- 84
2019-01-25 01:00:00 5.3 9 Oeste 22 Noroeste 0 -- -- 77
2019-01-25 00:00:00 7.5 15 Noroeste 26 Noroeste 0 -- -- 70
2019-01-24 23:00:00 8.2 15 Noroeste 21 Noroeste 0 -- -- 70
2019-01-24 22:00:00 7.3 10 Noroeste 28 Noroeste 0 -- -- 75
2019-01-24 21:00:00 9.6 17 Noroeste 24 Norte 0 -- -- 69
2019-01-24 20:00:00 10 16 Noroeste 24 Norte 0 -- -- 68
2019-01-24 19:00:00 10.9 17 Noroeste 28 Norte 0 -- -- 65
2019-01-24 18:00:00 12.9 20 Norte 36 Noroeste 0 -- -- 58
2019-01-24 17:00:00 14.7 25 Noroeste 42 Norte 0 -- -- 51
2019-01-24 16:00:00 15.6 27 Noroeste 45 Norte 0 -- -- 50
2019-01-24 15:00:00 15.9 30 Norte 52 Norte 0 -- -- 49
2019-01-24 14:00:00 15.9 33 Norte 50 Norte 0 -- -- 48
2019-01-24 13:00:00 15.9 27 Noroeste 39 Noroeste 0 -- -- 50
2019-01-24 12:00:00 14.3 24 Noroeste 32 Noroeste 0 -- -- 60
2019-01-24 11:00:00 12.4 21 Oeste 35 Oeste 0 -- -- 66
2019-01-24 10:00:00 10 24 Oeste 34 Oeste 0 -- -- 76
2019-01-24 09:00:00 8.3 20 Oeste 27 Oeste 0 -- -- 82
2019-01-24 08:00:00 8 19 Oeste 27 Oeste 0 -- -- 83
2019-01-24 07:00:00 7.5 19 Oeste 28 Oeste 0 -- -- 86
2019-01-24 06:00:00 7.1 21 Oeste 30 Oeste 0 -- -- 86
2019-01-24 05:00:00 7.7 20 Oeste 30 Oeste 0 -- -- 83
2019-01-24 04:00:00 7 14 Oeste 34 Oeste 0 -- -- 84
2019-01-24 03:00:00 7.1 24 Oeste 35 Oeste 0 -- -- 83
2019-01-24 02:00:00 7.4 24 Sudoeste 32 Sudoeste 0 -- -- 82
2019-01-24 01:00:00 6.2 5 Noroeste 10 Oeste 0 -- -- 83
2019-01-24 00:00:00 7.2 4 Nordeste 21 Oeste 0 -- -- 78
2019-01-23 23:00:00 8.8 12 Noroeste 35 Oeste 0 -- -- 75
2019-01-23 22:00:00 9.6 18 Noroeste 31 Oeste 0 -- -- 72
2019-01-23 21:00:00 9.1 18 Oeste 32 Oeste 0 -- -- 76
2019-01-23 20:00:00 9.6 19 Oeste 32 Oeste 0 -- -- 75
2019-01-23 19:00:00 10.3 24 Oeste 40 Oeste 0 -- -- 72
2019-01-23 18:00:00 11.9 27 Noroeste 48 Noroeste 0 -- -- 61
2019-01-23 17:00:00 12.3 27 Noroeste 43 Noroeste 0 -- -- 59
2019-01-23 16:00:00 13.8 26 Noroeste 45 Noroeste 0 -- -- 54
2019-01-23 15:00:00 13.3 30 Noroeste 50 Noroeste 0 -- -- 54
2019-01-23 14:00:00 13.7 36 Noroeste 57 Noroeste 0 -- -- 53
2019-01-23 13:00:00 13.6 30 Noroeste 47 Noroeste 0 -- -- 56
2019-01-23 12:00:00 12 25 Noroeste 43 Noroeste 0 -- -- 60
2019-01-23 11:00:00 11.4 19 Noroeste 29 Oeste 0 -- -- 63
2019-01-23 10:00:00 8.7 22 Oeste 37 Oeste 0 -- -- 74
2019-01-23 09:00:00 6.7 26 Oeste 42 Oeste 0 -- -- 83
2019-01-23 08:00:00 6.8 29 Oeste 45 Oeste 0 -- -- 81
2019-01-23 07:00:00 7.3 32 Oeste 47 Oeste 0 -- -- 78
2019-01-23 06:00:00 6.5 34 Oeste 48 Oeste 0 -- -- 82
2019-01-23 05:00:00 5 29 Sudoeste 39 Sudoeste 0 -- -- 88
2019-01-23 04:00:00 5.2 26 Sudoeste 40 Sudoeste 0 -- -- 84
2019-01-23 03:00:00 5 32 Sudoeste 44 Sudoeste 0 -- -- 84
2019-01-23 02:00:00 5 27 Sudoeste 39 Sudoeste 0 -- -- 83
2019-01-23 01:00:00 5 28 Sudoeste 38 Sudoeste 0 -- -- 85
2019-01-23 00:00:00 5.1 21 Sudoeste 27 Sudoeste 0 -- -- 81
2019-01-22 23:00:00 4.9 16 Sudoeste 41 Oeste 0 -- -- 81
2019-01-22 22:00:00 5.7 26 Oeste 39 Oeste 0 -- -- 76
2019-01-22 21:00:00 5.5 22 Oeste 32 Oeste 0 -- -- 77
2019-01-22 20:00:00 5.8 15 Noroeste 22 Oeste 0 -- -- 73
2019-01-22 19:00:00 6.9 10 Noroeste 25 Noroeste 0 -- -- 70
2019-01-22 18:00:00 7.9 13 Noroeste 26 Noroeste 0 -- -- 69
2019-01-22 17:00:00 8.5 18 Noroeste 32 Oeste 0 -- -- 72
2019-01-22 16:00:00 7.3 21 Sudoeste 39 Oeste 0 -- -- 84
2019-01-22 15:00:00 6.2 28 Oeste 47 Sudoeste 0 -- -- 86
2019-01-22 14:00:00 5.8 32 Oeste 46 Sudoeste 0 -- -- 87
2019-01-22 13:00:00 5.2 29 Oeste 46 Sudoeste 0 -- -- 88
2019-01-22 12:00:00 5.1 31 Oeste 46 Oeste 0 -- -- 82
2019-01-22 11:00:00 3.1 25 Oeste 41 Oeste 0 -- -- 84
2019-01-22 10:00:00 2 22 Oeste 32 Oeste 0 -- -- 84
2019-01-22 09:00:00 1.5 8 Noroeste 18 Oeste 0 -- -- 80
2019-01-22 08:00:00 1.8 6 Noroeste 17 Oeste 0 -- -- 79
2019-01-22 07:00:00 1.2 8 Noroeste 13 Sudoeste 0 -- -- 82
2019-01-22 06:00:00 0.2 4 Oeste 10 Oeste 0 -- -- 91
2019-01-22 05:00:00 -0.4 3 Sur 9 Oeste 0 -- -- 94
2019-01-22 04:00:00 -0.8 2 Noroeste 7 Noroeste 0 -- -- 94
2019-01-22 03:00:00 -0.9 2 Noroeste 9 Oeste 0 -- -- 93
2019-01-22 02:00:00 -1.2 2 Sudeste 10 Oeste 0 -- -- 91
2019-01-22 01:00:00 -1.1 6 Oeste 9 Oeste 0 -- -- 91
2019-01-22 00:00:00 -0.5 2 Oeste 6 Sudeste 0 -- -- 84
2019-01-21 23:00:00 -0.1 3 Sur 9 Oeste 0 -- -- 88
2019-01-21 22:00:00 0 9 Noroeste 11 Oeste 0 -- -- 89
2019-01-21 21:00:00 -0.1 11 Oeste 12 Oeste 0 -- -- 86
2019-01-21 20:00:00 1.7 11 Oeste 16 Noroeste 0 -- -- 83
2019-01-21 19:00:00 3.2 2 Sur 8 Sur 0 -- -- 72
2019-01-21 18:00:00 8 6 Este 15 Nordeste 0 -- -- 56
2019-01-21 17:00:00 8.8 10 Nordeste 23 Nordeste 0 -- -- 50
2019-01-21 16:00:00 9.4 14 Nordeste 21 Norte 0 -- -- 48
2019-01-21 15:00:00 9.3 11 Nordeste 26 Nordeste 0 -- -- 48
2019-01-21 14:00:00 9.3 10 Norte 27 Noroeste 0 -- -- 50
2019-01-21 13:00:00 8.7 14 Norte 27 Norte 0 -- -- 55
2019-01-21 12:00:00 7.3 21 Norte 28 Norte 0 -- -- 64
2019-01-21 11:00:00 5.3 7 Nordeste 12 Nordeste 0 -- -- 77
2019-01-21 10:00:00 1.2 0 Calma 10 Este 0 -- -- 88
2019-01-21 09:00:00 -1.2 3 Oeste 6 Noroeste 0 -- -- 92
2019-01-21 08:00:00 -1.4 0 Calma 15 Noroeste 0 -- -- 91
2019-01-21 07:00:00 -0.4 14 Noroeste 17 Noroeste 0 -- -- 90
2019-01-21 06:00:00 -1.6 0 Calma 9 Oeste 0 -- -- 92
2019-01-21 05:00:00 -1.9 8 Noroeste 10 Noroeste 0 -- -- 92
2019-01-21 04:00:00 -0.4 5 Oeste 8 Noroeste 0 -- -- 87
2019-01-21 03:00:00 -0.8 6 Noroeste 14 Noroeste 0 -- -- 91
2019-01-21 02:00:00 -0.3 4 Sudoeste 12 Noroeste 0 -- -- 93
2019-01-21 01:00:00 -0.7 8 Noroeste 10 Noroeste 0 -- -- 89
2019-01-21 00:00:00 0.7 4 Noroeste 12 Noroeste 0 -- -- 88
2019-01-20 23:00:00 0.4 3 Oeste 6 Oeste 0 -- -- 93
2019-01-20 22:00:00 1.3 0 Calma 16 Norte 0 -- -- 84
2019-01-20 21:00:00 3.5 14 Norte 18 Norte 0 -- -- 83
2019-01-20 20:00:00 4.7 12 Noroeste 21 Norte 0 -- -- 75
2019-01-20 19:00:00 5.6 12 Norte 22 Norte 0 -- -- 71
2019-01-20 18:00:00 8.5 12 Norte 27 Norte 0 -- -- 61
2019-01-20 17:00:00 10 18 Norte 28 Norte 0 -- -- 56
2019-01-20 16:00:00 9.6 18 Norte 32 Norte 0 -- -- 55
2019-01-20 15:00:00 11 18 Norte 36 Norte 0 -- -- 55
2019-01-20 14:00:00 10.5 22 Norte 35 Norte 0 -- -- 53
2019-01-20 13:00:00 9.5 20 Norte 33 Noroeste 0 -- -- 59
2019-01-20 12:00:00 8.3 20 Noroeste 33 Noroeste 0 -- -- 64
2019-01-20 11:00:00 7 18 Noroeste 28 Noroeste 0 -- -- 71
2019-01-20 10:00:00 4 8 Noroeste 19 Noroeste 0 -- -- 83
2019-01-20 09:00:00 0.5 6 Oeste 17 Noroeste 0 -- -- 91
2019-01-20 08:00:00 2.5 9 Noroeste 16 Noroeste 0 -- -- 86
2019-01-20 07:00:00 2.7 9 Noroeste 21 Noroeste 0 -- -- 90
2019-01-20 06:00:00 3.5 14 Noroeste 24 Noroeste 0 -- -- 90
2019-01-20 05:00:00 3.8 15 Noroeste 26 Noroeste 0 -- -- 88
2019-01-20 04:00:00 1.8 9 Noroeste 15 Noroeste 0 -- -- 98
2019-01-20 03:00:00 1.6 5 Noroeste 9 Noroeste 0 -- -- 95
2019-01-20 02:00:00 2.5 8 Noroeste 13 Noroeste 0 -- -- 95
2019-01-20 01:00:00 2.6 8 Noroeste 17 Noroeste 0 -- -- 95
2019-01-20 00:00:00 2.9 8 Noroeste 15 Noroeste 0.6 -- -- 96
2019-01-19 23:00:00 3.1 7 Noroeste 11 Noroeste 0.8 -- -- 96
2019-01-19 22:00:00 3.1 7 Noroeste 24 Norte 0.8 -- -- 96
2019-01-19 21:00:00 6.7 12 Oeste 28 Oeste 0 -- -- 96
2019-01-19 20:00:00 6.5 21 Sudoeste 31 Sudoeste 0 -- -- 96
2019-01-19 19:00:00 6.4 18 Sudoeste 28 Oeste 0 -- -- 95
2019-01-19 18:00:00 6.3 15 Sudoeste 23 Sudoeste 0.2 -- -- 95
2019-01-19 17:00:00 5.9 14 Sudoeste 24 Sudoeste 0.2 -- -- 95
2019-01-19 16:00:00 5.5 13 Oeste 22 Sudoeste 0.2 -- -- 95
2019-01-19 15:00:00 5.1 14 Sudoeste 28 Sudoeste 0 -- -- 95
2019-01-19 14:00:00 5.2 12 Sudoeste 21 Sudoeste 0 -- -- 95
2019-01-19 13:00:00 4.7 11 Sudoeste 20 Sudoeste 0.2 -- -- 94
2019-01-19 12:00:00 3.8 11 Sudoeste 22 Sudoeste 0.6 -- -- 94
2019-01-19 11:00:00 3.2 15 Sudoeste 26 Sudoeste 0.4 -- -- 95
2019-01-19 10:00:00 2.9 19 Sudoeste 26 Sudoeste 0.8 -- -- 95
2019-01-19 09:00:00 2.8 15 Sudoeste 22 Sudoeste 0.4 -- -- 95
2019-01-19 08:00:00 3 18 Sudoeste 25 Sudoeste 0 -- -- 96
2019-01-19 07:00:00 2.7 6 Oeste 17 Noroeste 0 -- -- 96
2019-01-19 06:00:00 2.5 9 Noroeste 19 Oeste 0 -- -- 95
2019-01-19 05:00:00 2.6 9 Sudoeste 20 Oeste 0 -- -- 94
2019-01-19 04:00:00 2.4 9 Oeste 31 Oeste 0 -- -- 93
2019-01-19 03:00:00 1.9 20 Oeste 31 Oeste 0 -- -- 95
2019-01-19 02:00:00 1.4 10 Oeste 29 Oeste 0 -- -- 96
2019-01-19 01:00:00 1.4 12 Noroeste 31 Noroeste 0 -- -- 96
2019-01-19 00:00:00 1.2 23 Sudoeste 34 Oeste 0 -- -- 95